sensor_id;sensor_type;location;lat;lon;timestamp;pressure;altitude;pressure_sealevel;temperature;humidity
43878;BME280;29815;48.184;11.268;2023-04-06T00:02:09;95790.31;;;-3.17;100.00
43878;BME280;29815;48.184;11.268;2023-04-06T00:04:39;95794.13;;;-3.20;100.00
43878;BME280;29815;48.184;11.268;2023-04-06T00:07:08;95787.22;;;-3.21;100.00
43878;BME280;29815;48.184;11.268;2023-04-06T00:09:38;95788.03;;;-3.20;100.00
43878;BME280;29815;48.184;11.268;2023-04-06T00:12:08;95781.78;;;-3.19;100.00
43878;BME280;29815;48.184;11.268;2023-04-06T00:14:39;95775.53;;;-3.18;100.00
43878;BME280;29815;48.184;11.268;2023-04-06T00:17:09;95778.44;;;-3.13;100.00
43878;BME280;29815;48.184;11.268;2023-04-06T00:19:39;95777.44;;;-3.12;100.00
43878;BME280;29815;48.184;11.268;2023-04-06T00:22:09;95777.63;;;-3.14;100.00
43878;BME280;29815;48.184;11.268;2023-04-06T00:24:39;95784.69;;;-3.14;100.00
43878;BME280;29815;48.184;11.268;2023-04-06T00:27:08;95778.81;;;-3.16;100.00
43878;BME280;29815;48.184;11.268;2023-04-06T00:29:39;95777.53;;;-3.20;100.00
43878;BME280;29815;48.184;11.268;2023-04-06T00:32:09;95779.69;;;-3.24;100.00
43878;BME280;29815;48.184;11.268;2023-04-06T00:34:39;95779.22;;;-3.27;100.00
43878;BME280;29815;48.184;11.268;2023-04-06T00:37:10;95781.59;;;-3.32;100.00
43878;BME280;29815;48.184;11.268;2023-04-06T00:39:40;95776.50;;;-3.34;100.00
43878;BME280;29815;48.184;11.268;2023-04-06T00:42:12;95770.97;;;-3.39;100.00
43878;BME280;29815;48.184;11.268;2023-04-06T00:44:44;95778.84;;;-3.39;100.00
43878;BME280;29815;48.184;11.268;2023-04-06T00:47:13;95774.41;;;-3.38;100.00
43878;BME280;29815;48.184;11.268;2023-04-06T00:49:43;95774.88;;;-3.35;100.00
43878;BME280;29815;48.184;11.268;2023-04-06T00:52:13;95775.69;;;-3.34;100.00
43878;BME280;29815;48.184;11.268;2023-04-06T00:54:46;95775.03;;;-3.36;100.00
43878;BME280;29815;48.184;11.268;2023-04-06T00:57:17;95774.41;;;-3.38;100.00
43878;BME280;29815;48.184;11.268;2023-04-06T00:59:54;95775.56;;;-3.41;100.00
43878;BME280;29815;48.184;11.268;2023-04-06T01:02:24;95781.47;;;-3.39;100.00
43878;BME280;29815;48.184;11.268;2023-04-06T01:04:55;95774.06;;;-3.35;100.00
43878;BME280;29815;48.184;11.268;2023-04-06T01:07:36;95777.97;;;-3.31;100.00
43878;BME280;29815;48.184;11.268;2023-04-06T01:10:23;95771.72;;;-3.30;100.00
43878;BME280;29815;48.184;11.268;2023-04-06T01:12:59;95773.06;;;-3.34;100.00
43878;BME280;29815;48.184;11.268;2023-04-06T01:15:46;95770.97;;;-3.39;100.00
43878;BME280;29815;48.184;11.268;2023-04-06T01:18:26;95782.00;;;-3.44;100.00
43878;BME280;29815;48.184;11.268;2023-04-06T01:21:07;95780.91;;;-3.49;100.00
43878;BME280;29815;48.184;11.268;2023-04-06T01:23:55;95769.72;;;-3.51;100.00
43878;BME280;29815;48.184;11.268;2023-04-06T01:26:33;95771.72;;;-3.53;100.00
43878;BME280;29815;48.184;11.268;2023-04-06T01:29:07;95770.28;;;-3.56;100.00
43878;BME280;29815;48.184;11.268;2023-04-06T01:31:37;95765.56;;;-3.60;100.00
43878;BME280;29815;48.184;11.268;2023-04-06T01:34:07;95763.28;;;-3.63;100.00
43878;BME280;29815;48.184;11.268;2023-04-06T01:36:37;95764.63;;;-3.67;100.00
43878;BME280;29815;48.184;11.268;2023-04-06T01:39:22;95766.59;;;-3.69;100.00
43878;BME280;29815;48.184;11.268;2023-04-06T01:41:52;95759.25;;;-3.74;100.00
43878;BME280;29815;48.184;11.268;2023-04-06T01:44:22;95755.16;;;-3.77;100.00
43878;BME280;29815;48.184;11.268;2023-04-06T01:47:04;95758.13;;;-3.80;100.00
43878;BME280;29815;48.184;11.268;2023-04-06T01:49:34;95762.94;;;-3.83;100.00
43878;BME280;29815;48.184;11.268;2023-04-06T01:52:04;95761.81;;;-3.89;100.00
43878;BME280;29815;48.184;11.268;2023-04-06T01:54:37;95758.56;;;-3.91;100.00
43878;BME280;29815;48.184;11.268;2023-04-06T01:57:06;95756.44;;;-3.95;100.00
43878;BME280;29815;48.184;11.268;2023-04-06T01:59:51;95752.34;;;-3.98;100.00
43878;BME280;29815;48.184;11.268;2023-04-06T02:02:41;95758.13;;;-4.02;100.00
43878;BME280;29815;48.184;11.268;2023-04-06T02:05:19;95761.91;;;-4.05;100.00
43878;BME280;29815;48.184;11.268;2023-04-06T02:07:51;95749.94;;;-4.07;100.00
43878;BME280;29815;48.184;11.268;2023-04-06T02:10:30;95756.84;;;-4.06;100.00
43878;BME280;29815;48.184;11.268;2023-04-06T02:13:05;95748.13;;;-4.07;100.00
43878;BME280;29815;48.184;11.268;2023-04-06T02:15:35;95754.38;;;-4.08;100.00
43878;BME280;29815;48.184;11.268;2023-04-06T02:18:05;95749.94;;;-4.07;100.00
43878;BME280;29815;48.184;11.268;2023-04-06T02:20:35;95760.47;;;-4.07;100.00
43878;BME280;29815;48.184;11.268;2023-04-06T02:23:04;95750.13;;;-4.09;100.00
43878;BME280;29815;48.184;11.268;2023-04-06T02:25:36;95742.88;;;-4.07;100.00
43878;BME280;29815;48.184;11.268;2023-04-06T02:28:05;95751.88;;;-4.01;100.00
43878;BME280;29815;48.184;11.268;2023-04-06T02:30:35;95747.75;;;-3.96;100.00
43878;BME280;29815;48.184;11.268;2023-04-06T02:33:06;95738.69;;;-3.93;100.00
43878;BME280;29815;48.184;11.268;2023-04-06T02:35:44;95736.22;;;-3.95;100.00
43878;BME280;29815;48.184;11.268;2023-04-06T02:38:14;95750.19;;;-3.94;100.00
43878;BME280;29815;48.184;11.268;2023-04-06T02:40:46;95743.94;;;-3.93;100.00
43878;BME280;29815;48.184;11.268;2023-04-06T02:43:22;95746.56;;;-3.93;100.00
43878;BME280;29815;48.184;11.268;2023-04-06T02:46:00;95740.03;;;-3.97;100.00
43878;BME280;29815;48.184;11.268;2023-04-06T02:48:33;95741.53;;;-4.03;100.00
43878;BME280;29815;48.184;11.268;2023-04-06T02:51:04;95741.88;;;-4.06;100.00
43878;BME280;29815;48.184;11.268;2023-04-06T02:53:35;95741.06;;;-4.06;100.00
43878;BME280;29815;48.184;11.268;2023-04-06T02:56:07;95742.22;;;-4.09;100.00
43878;BME280;29815;48.184;11.268;2023-04-06T02:58:49;95745.41;;;-4.14;100.00
43878;BME280;29815;48.184;11.268;2023-04-06T03:01:22;95743.66;;;-4.21;100.00
43878;BME280;29815;48.184;11.268;2023-04-06T03:03:57;95734.47;;;-4.25;100.00
43878;BME280;29815;48.184;11.268;2023-04-06T03:06:29;95734.63;;;-4.27;100.00
43878;BME280;29815;48.184;11.268;2023-04-06T03:09:07;95744.16;;;-4.26;100.00
43878;BME280;29815;48.184;11.268;2023-04-06T03:11:42;95739.72;;;-4.25;100.00
43878;BME280;29815;48.184;11.268;2023-04-06T03:14:12;95746.97;;;-4.27;100.00
43878;BME280;29815;48.184;11.268;2023-04-06T03:16:42;95742.88;;;-4.30;100.00
43878;BME280;29815;48.184;11.268;2023-04-06T03:19:17;95742.88;;;-4.30;100.00
43878;BME280;29815;48.184;11.268;2023-04-06T03:21:47;95741.41;;;-4.32;100.00
43878;BME280;29815;48.184;11.268;2023-04-06T03:24:18;95734.34;;;-4.32;100.00
43878;BME280;29815;48.184;11.268;2023-04-06T03:26:50;95729.91;;;-4.31;100.00
43878;BME280;29815;48.184;11.268;2023-04-06T03:29:20;95735.81;;;-4.29;100.00
43878;BME280;29815;48.184;11.268;2023-04-06T03:31:50;95734.00;;;-4.29;100.00
43878;BME280;29815;48.184;11.268;2023-04-06T03:34:33;95735.47;;;-4.26;100.00
43878;BME280;29815;48.184;11.268;2023-04-06T03:37:03;95733.31;;;-4.23;100.00
43878;BME280;29815;48.184;11.268;2023-04-06T03:39:40;95735.75;;;-4.21;100.00
43878;BME280;29815;48.184;11.268;2023-04-06T03:42:15;95736.75;;;-4.22;100.00
43878;BME280;29815;48.184;11.268;2023-04-06T03:44:53;95745.78;;;-4.25;100.00
43878;BME280;29815;48.184;11.268;2023-04-06T03:47:23;95742.88;;;-4.30;100.00
43878;BME280;29815;48.184;11.268;2023-04-06T03:49:57;95745.00;;;-4.33;100.00
43878;BME280;29815;48.184;11.268;2023-04-06T03:52:27;95748.63;;;-4.34;100.00
43878;BME280;29815;48.184;11.268;2023-04-06T03:54:56;95745.19;;;-4.35;100.00
43878;BME280;29815;48.184;11.268;2023-04-06T03:57:27;95746.19;;;-4.36;100.00
43878;BME280;29815;48.184;11.268;2023-04-06T03:59:58;95745.34;;;-4.36;100.00
43878;BME280;29815;48.184;11.268;2023-04-06T04:02:28;95745.72;;;-4.39;100.00
43878;BME280;29815;48.184;11.268;2023-04-06T04:04:58;95749.19;;;-4.39;100.00
43878;BME280;29815;48.184;11.268;2023-04-06T04:07:28;95752.41;;;-4.37;100.00
43878;BME280;29815;48.184;11.268;2023-04-06T04:09:57;95755.69;;;-4.35;100.00
43878;BME280;29815;48.184;11.268;2023-04-06T04:12:29;95752.72;;;-4.32;100.00
43878;BME280;29815;48.184;11.268;2023-04-06T04:14:59;95755.00;;;-4.29;100.00
43878;BME280;29815;48.184;11.268;2023-04-06T04:17:29;95760.09;;;-4.27;100.00
43878;BME280;29815;48.184;11.268;2023-04-06T04:19:59;95755.50;;;-4.25;100.00
43878;BME280;29815;48.184;11.268;2023-04-06T04:22:28;95757.94;;;-4.24;100.00
43878;BME280;29815;48.184;11.268;2023-04-06T04:24:58;95765.00;;;-4.24;100.00
43878;BME280;29815;48.184;11.268;2023-04-06T04:27:32;95761.72;;;-4.26;100.00
43878;BME280;29815;48.184;11.268;2023-04-06T04:30:02;95753.19;;;-4.28;100.00
43878;BME280;29815;48.184;11.268;2023-04-06T04:32:32;95769.13;;;-4.30;100.00
43878;BME280;29815;48.184;11.268;2023-04-06T04:35:05;95766.03;;;-4.33;100.00
43878;BME280;29815;48.184;11.268;2023-04-06T04:37:38;95758.31;;;-4.35;100.00
43878;BME280;29815;48.184;11.268;2023-04-06T04:40:10;95758.50;;;-4.36;100.00
43878;BME280;29815;48.184;11.268;2023-04-06T04:42:58;95768.00;;;-4.35;100.00
43878;BME280;29815;48.184;11.268;2023-04-06T04:45:34;95762.75;;;-4.35;100.00
43878;BME280;29815;48.184;11.268;2023-04-06T04:48:23;95769.38;;;-4.39;100.00
43878;BME280;29815;48.184;11.268;2023-04-06T04:50:58;95767.25;;;-4.44;100.00
43878;BME280;29815;48.184;11.268;2023-04-06T04:53:37;95769.56;;;-4.49;100.00
43878;BME280;29815;48.184;11.268;2023-04-06T04:56:17;95770.91;;;-4.53;100.00
43878;BME280;29815;48.184;11.268;2023-04-06T04:58:51;95770.41;;;-4.57;100.00
43878;BME280;29815;48.184;11.268;2023-04-06T05:01:22;95774.84;;;-4.57;100.00
43878;BME280;29815;48.184;11.268;2023-04-06T05:03:52;95767.47;;;-4.62;100.00
43878;BME280;29815;48.184;11.268;2023-04-06T05:06:22;95767.03;;;-4.65;100.00
43878;BME280;29815;48.184;11.268;2023-04-06T05:08:54;95768.19;;;-4.68;100.00
43878;BME280;29815;48.184;11.268;2023-04-06T05:11:24;95770.00;;;-4.68;100.00
43878;BME280;29815;48.184;11.268;2023-04-06T05:14:01;95765.72;;;-4.69;100.00
43878;BME280;29815;48.184;11.268;2023-04-06T05:16:30;95771.16;;;-4.71;100.00
43878;BME280;29815;48.184;11.268;2023-04-06T05:19:00;95768.53;;;-4.71;100.00
43878;BME280;29815;48.184;11.268;2023-04-06T05:21:38;95771.16;;;-4.71;100.00
43878;BME280;29815;48.184;11.268;2023-04-06T05:24:09;95773.63;;;-4.69;100.00
43878;BME280;29815;48.184;11.268;2023-04-06T05:26:40;95773.44;;;-4.68;100.00
43878;BME280;29815;48.184;11.268;2023-04-06T05:29:20;95781.31;;;-4.68;100.00
43878;BME280;29815;48.184;11.268;2023-04-06T05:31:51;95777.88;;;-4.68;100.00
43878;BME280;29815;48.184;11.268;2023-04-06T05:34:20;95780.34;;;-4.67;100.00
43878;BME280;29815;48.184;11.268;2023-04-06T05:36:51;95775.53;;;-4.63;100.00
43878;BME280;29815;48.184;11.268;2023-04-06T05:39:24;95780.44;;;-4.60;100.00
43878;BME280;29815;48.184;11.268;2023-04-06T05:41:55;95777.31;;;-4.56;100.00
43878;BME280;29815;48.184;11.268;2023-04-06T05:44:58;95784.50;;;-4.50;100.00
43878;BME280;29815;48.184;11.268;2023-04-06T05:47:27;95779.56;;;-4.45;100.00
43878;BME280;29815;48.184;11.268;2023-04-06T05:50:06;95783.94;;;-4.37;100.00
43878;BME280;29815;48.184;11.268;2023-04-06T05:52:39;95782.09;;;-4.28;100.00
43878;BME280;29815;48.184;11.268;2023-04-06T05:55:13;95779.28;;;-4.19;100.00
43878;BME280;29815;48.184;11.268;2023-04-06T05:57:47;95778.84;;;-4.07;100.00
43878;BME280;29815;48.184;11.268;2023-04-06T06:00:21;95784.53;;;-3.96;100.00
43878;BME280;29815;48.184;11.268;2023-04-06T06:03:01;95784.97;;;-3.84;100.00
43878;BME280;29815;48.184;11.268;2023-04-06T06:05:32;95784.88;;;-3.76;100.00
43878;BME280;29815;48.184;11.268;2023-04-06T06:08:10;95792.38;;;-3.65;100.00
43878;BME280;29815;48.184;11.268;2023-04-06T06:10:40;95785.25;;;-3.56;100.00
43878;BME280;29815;48.184;11.268;2023-04-06T06:13:12;95787.44;;;-3.45;100.00
43878;BME280;29815;48.184;11.268;2023-04-06T06:15:43;95779.78;;;-3.32;100.00
43878;BME280;29815;48.184;11.268;2023-04-06T06:18:14;95785.53;;;-3.14;100.00
43878;BME280;29815;48.184;11.268;2023-04-06T06:20:44;95790.19;;;-2.86;100.00
43878;BME280;29815;48.184;11.268;2023-04-06T06:23:14;95778.81;;;-2.57;100.00
43878;BME280;29815;48.184;11.268;2023-04-06T06:25:44;95784.88;;;-2.27;100.00
43878;BME280;29815;48.184;11.268;2023-04-06T06:28:14;95783.56;;;-2.02;100.00
43878;BME280;29815;48.184;11.268;2023-04-06T06:30:45;95781.75;;;-1.80;100.00
43878;BME280;29815;48.184;11.268;2023-04-06T06:33:20;95781.19;;;-1.54;100.00
43878;BME280;29815;48.184;11.268;2023-04-06T06:35:52;95775.56;;;-1.23;100.00
43878;BME280;29815;48.184;11.268;2023-04-06T06:38:22;95777.88;;;-1.14;100.00
43878;BME280;29815;48.184;11.268;2023-04-06T06:40:52;95778.91;;;-1.08;100.00
43878;BME280;29815;48.184;11.268;2023-04-06T06:43:25;95784.63;;;-1.05;100.00
43878;BME280;29815;48.184;11.268;2023-04-06T06:46:07;95782.50;;;-0.94;100.00
43878;BME280;29815;48.184;11.268;2023-04-06T06:48:37;95777.88;;;-0.86;100.00
43878;BME280;29815;48.184;11.268;2023-04-06T06:51:07;95778.72;;;-0.79;100.00
43878;BME280;29815;48.184;11.268;2023-04-06T06:53:37;95782.22;;;-0.72;100.00
43878;BME280;29815;48.184;11.268;2023-04-06T06:56:07;95775.16;;;-0.64;100.00
43878;BME280;29815;48.184;11.268;2023-04-06T06:58:37;95779.69;;;-0.58;100.00
43878;BME280;29815;48.184;11.268;2023-04-06T07:01:08;95775.41;;;-0.53;100.00
43878;BME280;29815;48.184;11.268;2023-04-06T07:03:38;95780.94;;;-0.48;100.00
43878;BME280;29815;48.184;11.268;2023-04-06T07:06:08;95782.38;;;-0.45;100.00
43878;BME280;29815;48.184;11.268;2023-04-06T07:08:40;95783.44;;;-0.40;100.00
43878;BME280;29815;48.184;11.268;2023-04-06T07:11:10;95788.38;;;-0.30;100.00
43878;BME280;29815;48.184;11.268;2023-04-06T07:13:40;95789.63;;;-0.19;100.00
43878;BME280;29815;48.184;11.268;2023-04-06T07:16:11;95791.50;;;-0.07;100.00
43878;BME280;29815;48.184;11.268;2023-04-06T07:18:40;95795.44;;;0.11;100.00
43878;BME280;29815;48.184;11.268;2023-04-06T07:21:11;95789.16;;;0.31;100.00
43878;BME280;29815;48.184;11.268;2023-04-06T07:23:41;95792.69;;;0.58;100.00
43878;BME280;29815;48.184;11.268;2023-04-06T07:26:11;95788.00;;;0.87;100.00
43878;BME280;29815;48.184;11.268;2023-04-06T07:28:41;95795.34;;;1.18;100.00
43878;BME280;29815;48.184;11.268;2023-04-06T07:31:13;95788.78;;;1.40;100.00
43878;BME280;29815;48.184;11.268;2023-04-06T07:33:43;95789.53;;;1.67;100.00
43878;BME280;29815;48.184;11.268;2023-04-06T07:36:13;95789.03;;;1.96;100.00
43878;BME280;29815;48.184;11.268;2023-04-06T07:38:44;95785.88;;;2.19;100.00
43878;BME280;29815;48.184;11.268;2023-04-06T07:41:14;95792.53;;;2.35;100.00
43878;BME280;29815;48.184;11.268;2023-04-06T07:43:44;95789.59;;;2.50;100.00
43878;BME280;29815;48.184;11.268;2023-04-06T07:46:16;95780.94;;;2.61;100.00
43878;BME280;29815;48.184;11.268;2023-04-06T07:48:45;95781.22;;;2.78;100.00
43878;BME280;29815;48.184;11.268;2023-04-06T07:51:15;95777.78;;;3.02;100.00
43878;BME280;29815;48.184;11.268;2023-04-06T07:53:46;95782.50;;;3.25;100.00
43878;BME280;29815;48.184;11.268;2023-04-06T07:56:16;95776.47;;;3.36;100.00
43878;BME280;29815;48.184;11.268;2023-04-06T07:58:46;95773.09;;;3.47;100.00
43878;BME280;29815;48.184;11.268;2023-04-06T08:01:17;95768.06;;;3.57;100.00
43878;BME280;29815;48.184;11.268;2023-04-06T08:03:46;95775.31;;;3.68;100.00
43878;BME280;29815;48.184;11.268;2023-04-06T08:06:16;95774.38;;;3.81;97.51
43878;BME280;29815;48.184;11.268;2023-04-06T08:08:46;95782.63;;;3.91;97.73
43878;BME280;29815;48.184;11.268;2023-04-06T08:11:16;95773.31;;;4.00;100.00
43878;BME280;29815;48.184;11.268;2023-04-06T08:13:45;95773.38;;;4.12;99.16
43878;BME280;29815;48.184;11.268;2023-04-06T08:16:17;95778.09;;;4.28;94.16
43878;BME280;29815;48.184;11.268;2023-04-06T08:18:48;95771.53;;;4.42;97.29
43878;BME280;29815;48.184;11.268;2023-04-06T08:21:17;95773.00;;;4.57;88.44
43878;BME280;29815;48.184;11.268;2023-04-06T08:23:47;95783.00;;;4.73;83.54
43878;BME280;29815;48.184;11.268;2023-04-06T08:26:17;95776.09;;;4.84;78.63
43878;BME280;29815;48.184;11.268;2023-04-06T08:28:47;95780.03;;;4.93;80.24
43878;BME280;29815;48.184;11.268;2023-04-06T08:31:18;95779.16;;;5.10;73.90
43878;BME280;29815;48.184;11.268;2023-04-06T08:33:47;95778.47;;;5.27;73.15
43878;BME280;29815;48.184;11.268;2023-04-06T08:36:17;95770.03;;;5.41;72.62
43878;BME280;29815;48.184;11.268;2023-04-06T08:38:50;95769.53;;;5.56;68.64
43878;BME280;29815;48.184;11.268;2023-04-06T08:41:20;95775.47;;;5.70;69.23
43878;BME280;29815;48.184;11.268;2023-04-06T08:43:56;95774.03;;;5.79;68.77
43878;BME280;29815;48.184;11.268;2023-04-06T08:46:29;95776.50;;;5.92;64.38
43878;BME280;29815;48.184;11.268;2023-04-06T08:49:01;95770.25;;;5.98;63.38
43878;BME280;29815;48.184;11.268;2023-04-06T08:51:37;95769.50;;;6.15;63.53
43878;BME280;29815;48.184;11.268;2023-04-06T08:54:07;95771.28;;;6.37;64.02
43878;BME280;29815;48.184;11.268;2023-04-06T08:56:38;95777.63;;;6.48;62.56
43878;BME280;29815;48.184;11.268;2023-04-06T08:59:09;95766.31;;;6.58;63.43
43878;BME280;29815;48.184;11.268;2023-04-06T09:01:41;95767.06;;;6.70;65.06
43878;BME280;29815;48.184;11.268;2023-04-06T09:04:12;95772.44;;;6.87;64.77
43878;BME280;29815;48.184;11.268;2023-04-06T09:06:43;95772.72;;;7.02;65.13
43878;BME280;29815;48.184;11.268;2023-04-06T09:09:13;95764.53;;;7.08;64.38
43878;BME280;29815;48.184;11.268;2023-04-06T09:11:45;95763.16;;;7.23;57.89
43878;BME280;29815;48.184;11.268;2023-04-06T09:14:17;95768.19;;;7.19;60.72
43878;BME280;29815;48.184;11.268;2023-04-06T09:17:05;95765.84;;;7.23;59.14
43878;BME280;29815;48.184;11.268;2023-04-06T09:19:45;95760.00;;;7.26;58.99
43878;BME280;29815;48.184;11.268;2023-04-06T09:22:15;95746.25;;;7.39;61.35
43878;BME280;29815;48.184;11.268;2023-04-06T09:24:47;95758.91;;;7.43;58.82
43878;BME280;29815;48.184;11.268;2023-04-06T09:27:18;95750.66;;;7.62;56.41
43878;BME280;29815;48.184;11.268;2023-04-06T09:30:07;95751.94;;;7.59;57.43
43878;BME280;29815;48.184;11.268;2023-04-06T09:32:50;95754.81;;;7.74;56.55
43878;BME280;29815;48.184;11.268;2023-04-06T09:35:22;95757.78;;;7.95;54.62
43878;BME280;29815;48.184;11.268;2023-04-06T09:37:54;95752.44;;;8.17;56.95
43878;BME280;29815;48.184;11.268;2023-04-06T09:40:24;95752.28;;;8.28;52.42
43878;BME280;29815;48.184;11.268;2023-04-06T09:42:54;95745.88;;;8.29;51.29
43878;BME280;29815;48.184;11.268;2023-04-06T09:45:26;95743.34;;;8.18;51.22
43878;BME280;29815;48.184;11.268;2023-04-06T09:48:00;95732.63;;;8.18;51.04
43878;BME280;29815;48.184;11.268;2023-04-06T09:50:30;95734.28;;;8.24;52.15
43878;BME280;29815;48.184;11.268;2023-04-06T09:53:01;95738.88;;;8.45;51.29
43878;BME280;29815;48.184;11.268;2023-04-06T09:55:42;95731.16;;;8.54;53.26
43878;BME280;29815;48.184;11.268;2023-04-06T09:58:13;95734.34;;;8.77;53.82
43878;BME280;29815;48.184;11.268;2023-04-06T10:00:51;95731.41;;;8.79;52.09
43878;BME280;29815;48.184;11.268;2023-04-06T10:03:36;95730.31;;;9.02;51.86
43878;BME280;29815;48.184;11.268;2023-04-06T10:06:15;95719.72;;;9.22;49.41
43878;BME280;29815;48.184;11.268;2023-04-06T10:08:51;95732.88;;;8.92;49.24
43878;BME280;29815;48.184;11.268;2023-04-06T10:11:22;95732.72;;;8.76;48.97
43878;BME280;29815;48.184;11.268;2023-04-06T10:13:52;95723.78;;;8.66;48.83
43878;BME280;29815;48.184;11.268;2023-04-06T10:16:22;95728.13;;;8.45;49.05
43878;BME280;29815;48.184;11.268;2023-04-06T10:19:02;95720.69;;;8.30;50.48
43878;BME280;29815;48.184;11.268;2023-04-06T10:21:36;95728.50;;;8.10;49.70
43878;BME280;29815;48.184;11.268;2023-04-06T10:24:09;95728.66;;;7.81;49.67
43878;BME280;29815;48.184;11.268;2023-04-06T10:26:40;95723.38;;;7.87;51.64
43878;BME280;29815;48.184;11.268;2023-04-06T10:29:09;95729.00;;;8.07;50.09
43878;BME280;29815;48.184;11.268;2023-04-06T10:31:42;95723.13;;;8.32;50.65
43878;BME280;29815;48.184;11.268;2023-04-06T10:34:14;95716.69;;;8.55;51.09
43878;BME280;29815;48.184;11.268;2023-04-06T10:36:43;95720.41;;;8.80;49.35
43878;BME280;29815;48.184;11.268;2023-04-06T10:39:13;95712.78;;;8.94;48.97
43878;BME280;29815;48.184;11.268;2023-04-06T10:41:45;95705.38;;;9.11;48.14
43878;BME280;29815;48.184;11.268;2023-04-06T10:44:21;95702.75;;;9.16;46.52
43878;BME280;29815;48.184;11.268;2023-04-06T10:46:56;95699.34;;;9.26;48.96
43878;BME280;29815;48.184;11.268;2023-04-06T10:49:29;95693.88;;;9.53;47.25
43878;BME280;29815;48.184;11.268;2023-04-06T10:51:59;95705.59;;;9.79;45.34
43878;BME280;29815;48.184;11.268;2023-04-06T10:54:29;95699.47;;;9.94;45.34
43878;BME280;29815;48.184;11.268;2023-04-06T10:57:00;95696.09;;;9.66;43.85
43878;BME280;29815;48.184;11.268;2023-04-06T10:59:30;95687.50;;;9.69;46.73
43878;BME280;29815;48.184;11.268;2023-04-06T11:02:00;95694.06;;;9.83;49.28
43878;BME280;29815;48.184;11.268;2023-04-06T11:04:31;95681.97;;;9.91;48.06
43878;BME280;29815;48.184;11.268;2023-04-06T11:07:00;95683.13;;;10.05;47.71
43878;BME280;29815;48.184;11.268;2023-04-06T11:09:30;95685.28;;;10.08;46.03
43878;BME280;29815;48.184;11.268;2023-04-06T11:12:00;95686.97;;;10.25;47.27
43878;BME280;29815;48.184;11.268;2023-04-06T11:14:30;95683.44;;;10.19;47.14
43878;BME280;29815;48.184;11.268;2023-04-06T11:16:59;95689.53;;;9.99;46.73
43878;BME280;29815;48.184;11.268;2023-04-06T11:19:31;95692.34;;;9.67;46.59
43878;BME280;29815;48.184;11.268;2023-04-06T11:22:07;95686.47;;;9.28;46.05
43878;BME280;29815;48.184;11.268;2023-04-06T11:24:37;95682.47;;;9.36;48.40
43878;BME280;29815;48.184;11.268;2023-04-06T11:27:07;95688.41;;;9.38;45.02
43878;BME280;29815;48.184;11.268;2023-04-06T11:29:36;95673.41;;;9.47;48.75
43878;BME280;29815;48.184;11.268;2023-04-06T11:32:08;95677.38;;;9.87;44.81
43878;BME280;29815;48.184;11.268;2023-04-06T11:34:40;95674.75;;;10.02;45.36
43878;BME280;29815;48.184;11.268;2023-04-06T11:37:12;95673.69;;;10.03;45.18
43878;BME280;29815;48.184;11.268;2023-04-06T11:39:48;95674.59;;;10.24;46.16
43878;BME280;29815;48.184;11.268;2023-04-06T11:42:23;95667.41;;;10.39;44.86
43878;BME280;29815;48.184;11.268;2023-04-06T11:44:55;95659.59;;;10.53;45.03
43878;BME280;29815;48.184;11.268;2023-04-06T11:47:29;95663.94;;;10.59;46.09
43878;BME280;29815;48.184;11.268;2023-04-06T11:50:08;95661.47;;;10.37;44.16
43878;BME280;29815;48.184;11.268;2023-04-06T11:52:40;95649.75;;;10.01;44.26
43878;BME280;29815;48.184;11.268;2023-04-06T11:55:13;95640.41;;;10.19;43.88
43878;BME280;29815;48.184;11.268;2023-04-06T11:57:44;95642.38;;;10.49;44.61
43878;BME280;29815;48.184;11.268;2023-04-06T12:00:16;95645.38;;;11.03;45.24
43878;BME280;29815;48.184;11.268;2023-04-06T12:02:47;95647.53;;;10.86;45.49
43878;BME280;29815;48.184;11.268;2023-04-06T12:05:19;95641.84;;;10.67;45.70
43878;BME280;29815;48.184;11.268;2023-04-06T12:07:49;95645.78;;;10.19;44.00
43878;BME280;29815;48.184;11.268;2023-04-06T12:10:18;95644.97;;;10.18;46.77
43878;BME280;29815;48.184;11.268;2023-04-06T12:12:48;95640.75;;;10.48;44.20
43878;BME280;29815;48.184;11.268;2023-04-06T12:15:18;95643.22;;;10.90;47.21
43878;BME280;29815;48.184;11.268;2023-04-06T12:17:48;95639.72;;;11.20;46.08
43878;BME280;29815;48.184;11.268;2023-04-06T12:20:19;95639.13;;;11.48;43.65
43878;BME280;29815;48.184;11.268;2023-04-06T12:22:54;95635.56;;;11.68;42.66
43878;BME280;29815;48.184;11.268;2023-04-06T12:25:24;95629.56;;;11.97;44.38
43878;BME280;29815;48.184;11.268;2023-04-06T12:27:54;95636.56;;;11.93;44.53
43878;BME280;29815;48.184;11.268;2023-04-06T12:30:24;95625.06;;;11.57;42.47
43878;BME280;29815;48.184;11.268;2023-04-06T12:32:54;95620.81;;;11.40;42.87
43878;BME280;29815;48.184;11.268;2023-04-06T12:35:25;95627.00;;;11.46;43.83
43878;BME280;29815;48.184;11.268;2023-04-06T12:37:54;95620.16;;;11.79;44.78
43878;BME280;29815;48.184;11.268;2023-04-06T12:40:24;95618.31;;;11.69;42.21
43878;BME280;29815;48.184;11.268;2023-04-06T12:42:54;95624.25;;;11.66;43.55
43878;BME280;29815;48.184;11.268;2023-04-06T12:45:24;95631.28;;;11.57;43.16
43878;BME280;29815;48.184;11.268;2023-04-06T12:47:53;95614.63;;;11.30;42.33
43878;BME280;29815;48.184;11.268;2023-04-06T12:50:24;95620.59;;;11.06;43.35
43878;BME280;29815;48.184;11.268;2023-04-06T12:52:54;95617.09;;;10.80;43.18
43878;BME280;29815;48.184;11.268;2023-04-06T12:55:24;95622.19;;;10.46;43.26
43878;BME280;29815;48.184;11.268;2023-04-06T12:57:54;95613.84;;;10.53;44.77
43878;BME280;29815;48.184;11.268;2023-04-06T13:00:24;95606.59;;;10.99;43.15
43878;BME280;29815;48.184;11.268;2023-04-06T13:02:54;95611.59;;;11.51;42.77
43878;BME280;29815;48.184;11.268;2023-04-06T13:05:26;95602.50;;;12.07;43.56
43878;BME280;29815;48.184;11.268;2023-04-06T13:07:57;95605.03;;;12.81;43.19
43878;BME280;29815;48.184;11.268;2023-04-06T13:10:27;95603.72;;;12.74;40.44
43878;BME280;29815;48.184;11.268;2023-04-06T13:12:56;95612.03;;;12.43;40.33
43878;BME280;29815;48.184;11.268;2023-04-06T13:15:26;95606.50;;;12.19;38.84